Time;durP1;ratioP1;P1;durP2;ratioP2;P2;SDS_P1;SDS_P2;PMS_P1;PMS_P2;Temp;Humidity;BMP_temperature;BMP_pressure;BME280_temperature;BME280_humidity;BME280_pressure;Samples;Min_cycle;Max_cycle;Signal;HPM_P1;HPM_P2
2022/09/15 00:01:23;;;;;;;4.35;1.95;;;17.30;99.90;;;;;;5031161;28;20026;-82
2022/09/15 00:03:49;;;;;;;5.10;1.63;;;17.30;99.90;;;;;;5030077;28;20037;-83
2022/09/15 00:06:15;;;;;;;3.10;1.60;;;17.30;99.90;;;;;;5031259;28;20033;-83
2022/09/15 00:08:41;;;;;;;3.70;1.60;;;17.30;99.90;;;;;;5031107;28;20029;-83
2022/09/15 00:11:16;;;;;;;3.50;1.90;;;17.30;99.90;;;;;;5031336;28;20033;-83
2022/09/15 00:13:41;;;;;;;5.68;2.20;;;17.30;99.90;;;;;;5030764;28;20022;-83
2022/09/15 00:16:09;;;;;;;4.40;1.77;;;17.30;99.90;;;;;;5030480;28;20044;-83
2022/09/15 00:18:35;;;;;;;2.90;1.70;;;17.30;99.90;;;;;;5029832;28;20065;-83
2022/09/15 00:21:08;;;;;;;3.22;1.52;;;17.30;99.90;;;;;;5029605;28;20029;-83
2022/09/15 00:23:34;;;;;;;3.30;1.83;;;17.30;99.90;;;;;;5029347;28;20034;-83
2022/09/15 00:26:00;;;;;;;4.93;1.90;;;17.20;99.90;;;;;;5029979;28;20045;-83
2022/09/15 00:28:25;;;;;;;3.92;1.83;;;17.20;99.90;;;;;;5029767;28;20041;-83
2022/09/15 00:30:53;;;;;;;4.10;1.88;;;17.20;99.90;;;;;;5029439;28;20034;-82
2022/09/15 00:33:20;;;;;;;3.80;1.60;;;17.20;99.90;;;;;;5029345;28;20029;-82
2022/09/15 00:35:49;;;;;;;5.15;1.90;;;17.20;99.90;;;;;;5029333;28;20370;-82
2022/09/15 00:38:17;;;;;;;3.80;1.80;;;17.20;99.90;;;;;;5029088;28;20109;-82
2022/09/15 00:40:47;;;;;;;4.00;1.63;;;17.20;99.90;;;;;;5027282;28;20382;-82
2022/09/15 00:43:13;;;;;;;4.30;1.77;;;17.30;99.90;;;;;;5028475;28;20025;-83
2022/09/15 00:45:39;;;;;;;4.72;1.60;;;17.30;99.90;;;;;;5028430;28;20025;-82
2022/09/15 00:48:08;;;;;;;4.13;1.80;;;17.30;99.90;;;;;;5028001;28;20144;-82
2022/09/15 00:50:35;;;;;;;4.78;1.50;;;17.30;99.90;;;;;;5028466;28;20033;-82
2022/09/15 00:53:04;;;;;;;3.58;1.70;;;17.30;99.90;;;;;;5028657;28;20029;-82
2022/09/15 00:55:36;;;;;;;4.57;1.95;;;17.30;99.90;;;;;;5029571;28;20037;-83
2022/09/15 00:58:11;;;;;;;4.68;1.70;;;17.30;99.90;;;;;;5029077;28;20434;-82
2022/09/15 01:00:55;;;;;;;3.47;1.80;;;17.30;99.90;;;;;;5028041;28;20121;-82
2022/09/15 01:03:23;;;;;;;5.50;1.80;;;17.30;99.90;;;;;;5028775;28;20036;-83
2022/09/15 01:05:53;;;;;;;5.32;2.22;;;17.30;99.90;;;;;;5028000;28;20029;-82
2022/09/15 01:08:55;;;;;;;4.25;1.67;;;17.30;99.90;;;;;;5028396;28;20052;-82
2022/09/15 01:11:21;;;;;;;5.75;2.85;;;17.30;99.90;;;;;;5027296;28;20084;-83
2022/09/15 01:13:47;;;;;;;3.58;1.58;;;17.30;99.90;;;;;;5028030;28;20030;-82
2022/09/15 01:16:18;;;;;;;3.42;1.50;;;17.30;99.90;;;;;;5027548;28;20141;-83
2022/09/15 01:18:50;;;;;;;3.70;1.73;;;17.30;99.90;;;;;;5028058;28;20478;-82
2022/09/15 01:21:41;;;;;;;3.38;1.83;;;17.40;99.90;;;;;;5028436;28;20033;-83
2022/09/15 01:24:40;;;;;;;4.47;2.20;;;17.30;99.90;;;;;;5027827;28;20055;-82
2022/09/15 01:27:08;;;;;;;3.58;1.70;;;17.40;99.90;;;;;;5028294;28;20033;-82
2022/09/15 01:29:33;;;;;;;5.00;1.90;;;17.40;99.90;;;;;;5027824;28;20026;-83
2022/09/15 01:35:24;;;;;;;5.30;1.95;;;17.40;99.90;;;;;;5028609;28;20067;-77
2022/09/15 01:38:28;;;;;;;4.33;1.60;;;17.40;99.90;;;;;;5029045;28;20047;-77
2022/09/15 01:41:12;;;;;;;5.60;1.52;;;17.40;99.90;;;;;;5028046;28;20022;-77
2022/09/15 01:43:48;;;;;;;3.25;1.63;;;17.40;99.90;;;;;;5028487;28;20036;-77
2022/09/15 01:46:17;;;;;;;5.32;2.00;;;17.40;99.90;;;;;;5028366;28;20029;-77
2022/09/15 01:48:46;;;;;;;5.43;1.80;;;17.40;99.90;;;;;;5027969;28;20044;-76
2022/09/15 01:51:13;;;;;;;6.07;1.67;;;17.50;99.90;;;;;;5027920;28;20115;-76
2022/09/15 01:53:39;;;;;;;3.33;1.77;;;17.50;99.90;;;;;;5027258;28;20026;-76
2022/09/15 01:56:08;;;;;;;6.72;2.03;;;17.60;99.90;;;;;;5027765;28;20505;-76
2022/09/15 01:58:35;;;;;;;5.55;1.90;;;17.60;99.90;;;;;;5026776;28;20025;-76
2022/09/15 02:01:39;;;;;;;6.25;1.92;;;17.70;99.90;;;;;;5026786;28;20017;-76
2022/09/15 02:04:11;;;;;;;3.72;1.65;;;17.70;99.90;;;;;;5026252;28;20528;-76
2022/09/15 02:06:59;;;;;;;4.97;1.60;;;17.70;99.90;;;;;;5026953;28;20490;-76
2022/09/15 02:09:33;;;;;;;3.58;1.50;;;17.70;99.90;;;;;;5027740;28;20033;-76
2022/09/15 02:12:32;;;;;;;3.70;1.95;;;17.80;99.90;;;;;;5026756;28;20495;-76
2022/09/15 02:15:06;;;;;;;5.72;1.70;;;17.90;99.90;;;;;;5027134;28;20103;-76
2022/09/15 02:17:37;;;;;;;5.45;2.25;;;17.90;99.90;;;;;;5027052;28;20352;-76
2022/09/15 02:20:22;;;;;;;5.40;2.28;;;17.90;99.90;;;;;;5026921;28;20033;-76
2022/09/15 02:22:54;;;;;;;4.07;1.60;;;17.90;99.90;;;;;;5026963;28;20381;-75
2022/09/15 02:25:31;;;;;;;3.40;1.45;;;17.90;99.90;;;;;;5027227;28;20064;-76
2022/09/15 02:28:05;;;;;;;3.92;1.45;;;18.00;99.90;;;;;;5026913;28;20033;-76
2022/09/15 02:30:33;;;;;;;3.25;1.60;;;17.90;99.90;;;;;;5027053;28;20029;-77
2022/09/15 02:33:02;;;;;;;7.07;1.90;;;17.90;99.90;;;;;;5026245;28;20033;-76
2022/09/15 02:35:30;;;;;;;5.28;2.00;;;17.90;99.90;;;;;;5027218;28;20025;-76
2022/09/15 02:37:56;;;;;;;4.57;1.90;;;17.90;99.90;;;;;;5027010;28;20100;-76
2022/09/15 02:40:22;;;;;;;3.80;1.90;;;17.90;99.90;;;;;;5027247;28;20096;-76
2022/09/15 02:42:53;;;;;;;5.57;1.70;;;17.80;99.90;;;;;;5027185;28;20458;-76
2022/09/15 02:45:19;;;;;;;3.45;1.75;;;17.80;99.90;;;;;;5029463;28;20032;-76
2022/09/15 02:47:45;;;;;;;3.45;1.55;;;17.80;99.90;;;;;;5030753;28;20037;-76
2022/09/15 02:50:11;;;;;;;4.47;1.80;;;17.80;99.90;;;;;;5030326;28;20029;-76
2022/09/15 02:52:37;;;;;;;7.05;1.73;;;17.70;99.90;;;;;;5030773;28;20453;-76
2022/09/15 02:55:03;;;;;;;3.42;1.55;;;17.80;99.90;;;;;;5030504;28;20432;-83
2022/09/15 02:57:29;;;;;;;4.20;1.70;;;17.70;99.90;;;;;;5029941;28;20084;-83
2022/09/15 03:00:13;;;;;;;3.78;1.60;;;17.80;99.90;;;;;;5030271;28;20115;-83
2022/09/15 03:02:48;;;;;;;3.40;1.50;;;17.70;99.90;;;;;;5030332;28;20022;-83
2022/09/15 03:05:17;;;;;;;3.33;1.63;;;17.70;99.90;;;;;;5030329;28;20087;-83
2022/09/15 03:07:42;;;;;;;5.05;1.50;;;17.60;99.90;;;;;;5030682;28;20494;-83
2022/09/15 03:10:11;;;;;;;3.70;1.52;;;17.60;99.90;;;;;;5030752;28;20083;-82
2022/09/15 03:12:51;;;;;;;4.55;1.80;;;17.60;99.90;;;;;;5030755;28;20088;-83
2022/09/15 03:15:20;;;;;;;5.88;1.65;;;17.60;99.90;;;;;;5030568;28;20033;-82
2022/09/15 03:17:47;;;;;;;3.35;1.80;;;17.50;99.90;;;;;;5030336;28;20036;-83
2022/09/15 03:20:16;;;;;;;5.70;1.98;;;17.50;99.90;;;;;;5030505;28;20025;-83
2022/09/15 03:22:41;;;;;;;3.10;1.40;;;17.50;99.90;;;;;;5029716;28;20033;-83
2022/09/15 03:25:08;;;;;;;6.88;1.85;;;17.50;99.90;;;;;;5029270;28;20105;-83
2022/09/15 03:27:34;;;;;;;4.30;1.45;;;17.50;99.90;;;;;;5030127;28;20136;-83
2022/09/15 03:30:00;;;;;;;5.15;1.95;;;17.40;99.90;;;;;;5030077;28;20041;-83
2022/09/15 03:32:26;;;;;;;5.43;1.70;;;17.50;99.90;;;;;;5030137;28;20510;-83
2022/09/15 03:34:52;;;;;;;3.92;1.40;;;17.50;99.90;;;;;;5029768;28;20099;-83
2022/09/15 03:37:18;;;;;;;2.92;1.60;;;17.50;99.90;;;;;;5029856;28;20478;-82
2022/09/15 03:39:43;;;;;;;3.63;1.50;;;17.50;99.90;;;;;;5030102;28;20038;-83
2022/09/15 03:42:09;;;;;;;2.83;1.50;;;17.50;99.90;;;;;;5029519;28;20417;-83
2022/09/15 03:44:34;;;;;;;3.08;1.40;;;17.50;99.90;;;;;;5029537;28;20064;-83
2022/09/15 03:47:01;;;;;;;3.08;1.40;;;17.50;99.90;;;;;;5029614;28;20040;-83
2022/09/15 03:49:26;;;;;;;3.88;1.50;;;17.50;99.90;;;;;;5030432;28;20037;-83
2022/09/15 03:51:52;;;;;;;2.65;1.40;;;17.50;99.90;;;;;;5029993;28;20036;-83
2022/09/15 03:54:18;;;;;;;4.68;1.70;;;17.50;99.90;;;;;;5030143;28;20064;-83
2022/09/15 03:56:47;;;;;;;4.25;1.40;;;17.50;99.90;;;;;;5029012;28;20144;-83
2022/09/15 03:59:15;;;;;;;4.45;1.55;;;17.50;99.90;;;;;;5029963;28;20025;-83
2022/09/15 04:01:41;;;;;;;4.03;1.30;;;17.50;99.90;;;;;;5029504;28;20029;-82
2022/09/15 04:04:06;;;;;;;3.72;1.50;;;17.50;99.90;;;;;;5029277;28;20111;-83
2022/09/15 04:06:32;;;;;;;3.38;1.38;;;17.50;99.90;;;;;;5029524;28;20044;-83
2022/09/15 04:09:01;;;;;;;2.00;1.40;;;17.50;99.90;;;;;;5029612;28;20371;-83
2022/09/15 04:11:27;;;;;;;3.20;1.40;;;17.50;99.90;;;;;;5029140;28;20065;-83
2022/09/15 04:13:53;;;;;;;3.17;1.50;;;17.50;99.90;;;;;;5029117;28;20467;-83
2022/09/15 04:16:24;;;;;;;4.10;1.42;;;17.50;99.90;;;;;;5028866;28;20117;-82
2022/09/15 04:18:51;;;;;;;3.90;1.50;;;17.50;99.90;;;;;;5028896;28;20876;-82
2022/09/15 04:21:19;;;;;;;2.58;1.35;;;17.60;99.90;;;;;;5029703;28;20053;-83
2022/09/15 04:23:46;;;;;;;2.50;1.30;;;17.60;99.90;;;;;;5029469;28;20041;-83
2022/09/15 04:26:19;;;;;;;2.03;1.30;;;17.70;99.90;;;;;;5029456;28;20802;-82
2022/09/15 04:28:44;;;;;;;3.50;1.20;;;17.70;99.90;;;;;;5028611;28;20441;-83
2022/09/15 04:31:12;;;;;;;2.88;1.20;;;17.70;99.90;;;;;;5028646;28;20041;-83
2022/09/15 04:33:39;;;;;;;2.42;1.58;;;17.70;99.90;;;;;;5028363;28;20038;-82
2022/09/15 04:36:11;;;;;;;2.65;1.25;;;17.70;99.90;;;;;;5028655;28;20036;-82
2022/09/15 04:38:37;;;;;;;5.10;1.40;;;17.70;99.90;;;;;;5028447;28;20371;-82
2022/09/15 04:41:04;;;;;;;3.33;1.27;;;17.80;99.90;;;;;;5028292;28;20104;-82
2022/09/15 04:43:30;;;;;;;3.17;1.40;;;17.70;99.90;;;;;;5028450;28;20033;-80
2022/09/15 04:45:56;;;;;;;1.90;1.15;;;17.80;99.90;;;;;;5028679;28;20029;-81
2022/09/15 04:48:23;;;;;;;3.55;1.42;;;17.70;99.90;;;;;;5029111;28;20033;-80
2022/09/15 04:50:49;;;;;;;1.63;1.20;;;17.70;99.90;;;;;;5028282;28;20083;-81
2022/09/15 04:53:15;;;;;;;3.72;1.33;;;17.80;99.90;;;;;;5028756;28;20033;-80
2022/09/15 04:55:40;;;;;;;5.95;1.30;;;17.70;99.90;;;;;;5027901;28;20057;-82
2022/09/15 04:58:06;;;;;;;2.13;1.13;;;17.70;99.90;;;;;;5028719;28;20490;-80
2022/09/15 05:00:36;;;;;;;2.80;1.08;;;17.70;99.90;;;;;;5028811;28;20477;-80
2022/09/15 05:03:01;;;;;;;3.50;1.25;;;17.70;99.90;;;;;;5028434;28;20110;-80
2022/09/15 05:05:27;;;;;;;1.60;1.00;;;17.70;99.90;;;;;;5028272;28;20045;-80
2022/09/15 05:07:52;;;;;;;4.68;1.40;;;17.70;99.90;;;;;;5028094;28;20071;-80
2022/09/15 05:10:19;;;;;;;2.40;1.00;;;17.80;99.90;;;;;;5028285;28;20041;-80
2022/09/15 05:12:45;;;;;;;1.52;1.20;;;17.80;99.90;;;;;;5028465;28;20624;-80
2022/09/15 05:15:11;;;;;;;1.42;1.02;;;17.80;99.90;;;;;;5027932;28;20037;-80
2022/09/15 05:17:36;;;;;;;2.20;1.20;;;17.70;99.90;;;;;;5029120;28;20038;-80
2022/09/15 05:20:03;;;;;;;2.08;1.20;;;17.70;99.90;;;;;;5028085;28;20033;-82
2022/09/15 05:22:29;;;;;;;1.98;1.10;;;17.80;99.90;;;;;;5028360;28;20029;-83
2022/09/15 05:24:55;;;;;;;2.63;0.85;;;17.70;99.90;;;;;;5028916;28;20029;-82
2022/09/15 05:27:20;;;;;;;2.00;0.98;;;17.70;99.90;;;;;;5027943;28;20469;-82
2022/09/15 05:29:46;;;;;;;2.90;0.93;;;17.70;99.90;;;;;;5027953;28;20108;-82
2022/09/15 05:32:11;;;;;;;1.73;1.00;;;17.70;99.90;;;;;;5027896;28;20041;-82
2022/09/15 05:34:37;;;;;;;2.50;1.10;;;17.70;99.90;;;;;;5027549;28;20292;-82
2022/09/15 05:37:04;;;;;;;2.35;1.02;;;17.80;99.90;;;;;;5027922;28;20033;-83
2022/09/15 05:39:29;;;;;;;2.25;1.13;;;17.80;99.90;;;;;;5027611;28;20036;-83
2022/09/15 05:41:55;;;;;;;3.55;1.17;;;17.70;99.90;;;;;;5027677;28;20633;-82
2022/09/15 05:44:20;;;;;;;3.55;1.17;;;17.70;99.90;;;;;;5025696;28;20064;-82
2022/09/15 05:46:47;;;;;;;3.13;1.00;;;17.70;99.90;;;;;;5026993;28;20045;-82
2022/09/15 05:49:12;;;;;;;2.47;1.15;;;17.80;99.90;;;;;;5028050;28;20033;-80
2022/09/15 05:51:38;;;;;;;2.42;1.23;;;17.80;99.90;;;;;;5027495;28;20043;-80
2022/09/15 05:54:03;;;;;;;1.85;1.02;;;17.80;99.90;;;;;;5027189;28;20033;-80
2022/09/15 05:56:30;;;;;;;3.70;1.30;;;17.80;99.90;;;;;;5027497;28;20533;-80
2022/09/15 05:58:56;;;;;;;1.35;1.20;;;17.80;99.90;;;;;;5027258;28;20032;-80
2022/09/15 06:01:26;;;;;;;3.50;1.00;;;17.90;99.90;;;;;;5027602;28;20034;-80
2022/09/15 06:03:53;;;;;;;2.53;1.00;;;17.90;99.90;;;;;;5027203;28;20075;-80
2022/09/15 06:06:23;;;;;;;3.28;1.05;;;17.90;99.90;;;;;;5027309;28;20118;-80
2022/09/15 06:08:53;;;;;;;3.00;1.25;;;17.90;99.90;;;;;;5027218;28;20184;-80
2022/09/15 06:11:21;;;;;;;3.97;1.65;;;18.00;99.90;;;;;;5027244;28;20151;-80
2022/09/15 06:13:47;;;;;;;2.03;1.40;;;18.00;99.90;;;;;;5027021;28;20030;-80
2022/09/15 06:16:22;;;;;;;2.85;1.05;;;18.00;99.90;;;;;;5027328;28;20021;-80
2022/09/15 06:18:50;;;;;;;3.15;1.42;;;18.00;99.90;;;;;;5028731;28;20386;-80
2022/09/15 06:21:17;;;;;;;2.60;1.20;;;18.00;99.90;;;;;;5033643;28;20040;-80
2022/09/15 06:23:43;;;;;;;1.63;1.10;;;18.00;99.90;;;;;;5033931;28;20036;-80
2022/09/15 06:26:11;;;;;;;5.10;1.42;;;18.00;99.90;;;;;;5033346;28;20025;-80
2022/09/15 06:28:38;;;;;;;2.00;1.30;;;18.10;99.90;;;;;;5033669;28;20025;-80
2022/09/15 06:31:08;;;;;;;5.28;1.40;;;18.10;99.90;;;;;;5033649;28;20079;-80
2022/09/15 06:33:33;;;;;;;2.45;1.20;;;18.10;99.90;;;;;;5034247;28;20041;-80
2022/09/15 06:36:01;;;;;;;2.72;1.23;;;18.10;99.90;;;;;;5034162;28;20040;-80
2022/09/15 06:38:26;;;;;;;3.47;1.30;;;18.20;99.90;;;;;;5034277;28;20122;-80
2022/09/15 06:40:56;;;;;;;2.35;1.00;;;18.10;99.90;;;;;;5033588;28;20572;-80
2022/09/15 06:43:22;;;;;;;2.03;1.00;;;18.20;99.90;;;;;;5034003;28;20044;-81
2022/09/15 06:45:48;;;;;;;4.50;1.10;;;18.10;99.90;;;;;;5033406;28;20026;-80
2022/09/15 06:48:13;;;;;;;3.75;1.20;;;18.20;99.90;;;;;;5032980;28;20060;-80
2022/09/15 06:50:39;;;;;;;2.35;1.20;;;18.20;99.90;;;;;;5033025;28;20025;-80
2022/09/15 06:53:04;;;;;;;3.00;1.20;;;18.10;99.90;;;;;;5035116;28;20030;-81
2022/09/15 06:55:30;;;;;;;2.85;1.17;;;18.20;99.90;;;;;;5035333;28;20458;-81
2022/09/15 06:57:55;;;;;;;1.30;1.00;;;18.10;99.90;;;;;;5035086;28;20061;-81
2022/09/15 07:00:21;;;;;;;1.85;1.23;;;18.10;99.90;;;;;;5033830;28;20060;-82
2022/09/15 07:02:50;;;;;;;2.75;1.42;;;18.00;99.90;;;;;;5034924;28;20044;-82
2022/09/15 07:05:15;;;;;;;6.13;1.20;;;18.00;99.90;;;;;;5035126;28;20117;-82
2022/09/15 07:07:41;;;;;;;3.60;1.15;;;18.00;99.90;;;;;;5035238;28;20444;-82
2022/09/15 07:10:08;;;;;;;1.80;1.17;;;17.90;99.90;;;;;;5034929;28;20049;-82
2022/09/15 07:12:34;;;;;;;2.83;1.23;;;17.90;99.90;;;;;;5033687;28;20035;-81
2022/09/15 07:14:59;;;;;;;6.03;1.40;;;17.90;99.90;;;;;;5033795;28;20455;-82
2022/09/15 07:17:25;;;;;;;3.55;1.48;;;18.00;99.90;;;;;;5033259;28;20088;-82
2022/09/15 07:19:51;;;;;;;1.35;1.05;;;18.00;99.90;;;;;;5033291;28;20021;-82
2022/09/15 07:22:17;;;;;;;4.63;1.20;;;18.00;99.90;;;;;;5033072;28;20052;-82
2022/09/15 07:24:42;;;;;;;3.15;1.33;;;18.00;99.90;;;;;;5031823;28;20540;-82
2022/09/15 07:27:08;;;;;;;2.38;1.40;;;18.10;99.90;;;;;;5033335;28;20061;-82
2022/09/15 07:29:34;;;;;;;3.38;1.33;;;18.20;99.90;;;;;;5032462;28;20115;-82
2022/09/15 07:31:59;;;;;;;2.85;1.10;;;18.30;99.90;;;;;;5029160;28;20041;-82
2022/09/15 07:34:25;;;;;;;6.30;1.23;;;18.30;99.90;;;;;;5029812;28;20047;-82
2022/09/15 07:36:50;;;;;;;2.80;1.38;;;18.50;99.90;;;;;;5029805;28;20080;-81
2022/09/15 07:39:16;;;;;;;3.40;1.27;;;18.60;99.90;;;;;;5030246;28;20578;-82
2022/09/15 07:41:41;;;;;;;1.30;1.02;;;18.60;99.90;;;;;;5029596;28;20029;-82
2022/09/15 07:44:10;;;;;;;2.40;1.20;;;18.70;99.90;;;;;;5029698;28;20041;-82
2022/09/15 07:46:36;;;;;;;5.88;1.52;;;18.80;99.90;;;;;;5029436;28;20542;-82
2022/09/15 07:49:02;;;;;;;2.75;1.20;;;19.10;99.90;;;;;;5029444;28;20167;-82
2022/09/15 07:51:27;;;;;;;2.90;1.38;;;19.20;99.90;;;;;;5029961;28;20447;-81
2022/09/15 07:53:53;;;;;;;2.15;1.20;;;19.40;99.90;;;;;;5029623;28;20037;-82
2022/09/15 07:56:19;;;;;;;2.67;1.27;;;19.40;99.90;;;;;;5029913;28;20083;-82
2022/09/15 07:58:46;;;;;;;1.48;1.10;;;19.40;99.90;;;;;;5029782;28;20521;-82
2022/09/15 08:01:13;;;;;;;3.47;1.25;;;19.40;99.90;;;;;;5029594;28;20025;-82
2022/09/15 08:03:44;;;;;;;2.28;1.10;;;19.40;99.90;;;;;;5029903;28;20026;-82
2022/09/15 08:06:11;;;;;;;2.28;1.00;;;19.40;99.90;;;;;;5029611;28;20597;-81
2022/09/15 08:08:38;;;;;;;1.90;1.15;;;19.30;99.90;;;;;;5029615;28;20029;-81
2022/09/15 08:11:13;;;;;;;4.95;1.20;;;19.30;99.90;;;;;;5029299;28;20568;-82
2022/09/15 08:13:39;;;;;;;2.33;1.20;;;19.40;99.90;;;;;;5029177;28;20112;-82
2022/09/15 08:16:10;;;;;;;1.95;1.20;;;19.50;99.90;;;;;;5029257;28;20155;-83
2022/09/15 08:18:36;;;;;;;2.20;1.20;;;19.60;99.90;;;;;;5029696;28;20144;-82
2022/09/15 08:21:06;;;;;;;2.67;1.40;;;19.60;99.90;;;;;;5027589;28;20108;-82
2022/09/15 08:23:31;;;;;;;3.13;1.17;;;19.60;99.90;;;;;;5029167;28;20432;-82
2022/09/15 08:25:57;;;;;;;4.18;1.45;;;19.70;99.90;;;;;;5029184;28;20319;-82
2022/09/15 08:28:22;;;;;;;2.20;1.20;;;19.80;99.90;;;;;;5029401;28;20030;-83
2022/09/15 08:30:48;;;;;;;3.17;1.60;;;19.90;99.90;;;;;;5029308;28;20076;-82
2022/09/15 08:33:13;;;;;;;2.90;1.27;;;19.80;99.90;;;;;;5029305;28;20021;-82
2022/09/15 08:35:39;;;;;;;2.67;1.30;;;19.80;99.90;;;;;;5028798;28;20390;-82
2022/09/15 08:38:04;;;;;;;2.42;1.10;;;19.90;99.90;;;;;;5029116;28;20025;-82
2022/09/15 08:40:36;;;;;;;5.60;1.55;;;19.90;99.90;;;;;;5028223;28;20045;-82
2022/09/15 08:43:14;;;;;;;3.22;1.30;;;19.90;99.90;;;;;;5028513;28;20033;-82
2022/09/15 08:45:51;;;;;;;2.80;1.52;;;19.90;99.90;;;;;;5026965;28;20438;-82
2022/09/15 08:48:19;;;;;;;3.50;1.52;;;20.00;99.90;;;;;;5029065;28;20077;-83
2022/09/15 08:50:48;;;;;;;2.38;1.30;;;20.10;99.90;;;;;;5028992;28;20056;-82
2022/09/15 08:53:24;;;;;;;2.13;1.02;;;20.10;99.90;;;;;;5028157;28;20064;-82
2022/09/15 08:55:54;;;;;;;2.70;1.38;;;20.20;99.90;;;;;;5028474;28;20402;-82
2022/09/15 08:58:33;;;;;;;5.10;1.27;;;20.10;99.90;;;;;;5028327;28;20032;-82
2022/09/15 09:01:26;;;;;;;3.35;1.40;;;20.10;99.90;;;;;;5028652;28;20040;-83
2022/09/15 09:04:15;;;;;;;2.65;1.30;;;20.10;99.90;;;;;;5028637;28;20071;-82
2022/09/15 09:07:02;;;;;;;3.13;1.30;;;20.10;99.90;;;;;;5028603;28;20052;-83
2022/09/15 09:09:46;;;;;;;3.53;1.30;;;20.00;99.90;;;;;;5027728;28;20021;-83
2022/09/15 09:12:25;;;;;;;2.00;1.27;;;20.00;99.90;;;;;;5028163;28;20044;-82
2022/09/15 09:15:05;;;;;;;2.03;1.30;;;19.90;99.90;;;;;;5028016;28;20122;-83
2022/09/15 09:18:06;;;;;;;7.28;1.23;;;19.80;99.90;;;;;;5028655;28;20477;-82
2022/09/15 09:20:36;;;;;;;5.25;1.25;;;19.90;99.90;;;;;;5028358;28;20102;-82
2022/09/15 09:23:07;;;;;;;2.58;1.30;;;19.80;99.90;;;;;;5027552;28;20041;-81
2022/09/15 09:25:34;;;;;;;5.68;1.60;;;19.70;99.90;;;;;;5028581;28;20037;-82
2022/09/15 09:28:01;;;;;;;4.07;1.58;;;19.80;99.90;;;;;;5028945;28;20033;-81
2022/09/15 09:30:31;;;;;;;3.08;1.40;;;19.80;99.90;;;;;;5029231;28;20046;-80
2022/09/15 09:33:32;;;;;;;3.28;1.35;;;19.80;99.90;;;;;;5028284;28;20025;-81
2022/09/15 09:36:00;;;;;;;2.38;1.13;;;20.10;99.90;;;;;;5026939;28;20439;-78
2022/09/15 09:38:38;;;;;;;2.65;1.15;;;20.60;99.90;;;;;;5028686;28;20025;-78
2022/09/15 09:41:16;;;;;;;3.47;1.40;;;20.90;99.90;;;;;;5028746;28;20474;-78
2022/09/15 09:43:45;;;;;;;2.53;1.10;;;21.30;99.90;;;;;;5028768;28;20345;-77
2022/09/15 09:46:16;;;;;;;1.95;1.30;;;21.60;99.90;;;;;;5029470;28;20024;-78
2022/09/15 09:49:00;;;;;;;5.25;1.55;;;21.80;99.90;;;;;;5028846;28;20440;-78
2022/09/15 09:51:33;;;;;;;2.07;1.13;;;22.00;99.90;;;;;;5028947;28;20036;-77
2022/09/15 09:54:15;;;;;;;2.20;1.08;;;22.10;99.90;;;;;;5027754;28;20441;-78
2022/09/15 09:56:42;;;;;;;3.45;1.23;;;22.10;99.90;;;;;;5027953;28;20099;-77
2022/09/15 09:59:29;;;;;;;2.60;1.27;;;22.10;99.90;;;;;;5028722;28;20087;-77
2022/09/15 10:02:14;;;;;;;2.15;1.08;;;22.30;99.90;;;;;;5028767;28;20524;-77
2022/09/15 10:04:43;;;;;;;2.25;1.20;;;22.30;99.90;;;;;;5028819;28;20501;-77
2022/09/15 10:07:10;;;;;;;1.70;1.00;;;22.70;99.90;;;;;;5028149;28;20140;-78
2022/09/15 10:09:36;;;;;;;3.55;1.10;;;23.10;99.90;;;;;;5028617;28;20060;-77
2022/09/15 10:12:03;;;;;;;2.40;1.15;;;23.60;99.90;;;;;;5029402;28;20087;-78
2022/09/15 10:14:36;;;;;;;2.78;1.20;;;23.90;99.90;;;;;;5028235;28;20029;-78
2022/09/15 10:17:09;;;;;;;2.10;1.05;;;23.90;99.90;;;;;;5028339;28;20036;-77
2022/09/15 10:19:45;;;;;;;3.95;0.95;;;24.10;99.90;;;;;;5028386;28;20033;-78
2022/09/15 10:22:24;;;;;;;3.67;1.10;;;24.40;99.90;;;;;;5028601;28;20471;-78
2022/09/15 10:24:49;;;;;;;3.83;0.90;;;24.50;99.90;;;;;;5027513;28;20035;-78
2022/09/15 10:27:34;;;;;;;1.10;0.88;;;24.40;99.90;;;;;;5028355;28;20029;-78
2022/09/15 10:30:11;;;;;;;3.08;0.80;;;24.10;99.90;;;;;;5028204;28;20104;-81
2022/09/15 10:32:37;;;;;;;5.82;1.20;;;23.90;99.90;;;;;;5028637;28;20029;-78
2022/09/15 10:35:12;;;;;;;1.58;0.90;;;23.60;99.90;;;;;;5027412;28;20033;-81
2022/09/15 10:37:44;;;;;;;2.42;1.00;;;23.10;99.90;;;;;;5028791;28;20115;-80
2022/09/15 10:40:18;;;;;;;1.60;0.90;;;22.90;99.90;;;;;;5031135;28;20026;-80
2022/09/15 10:42:53;;;;;;;7.30;1.17;;;22.60;99.90;;;;;;5027737;28;20097;-76
2022/09/15 10:45:38;;;;;;;7.63;1.30;;;22.40;99.90;;;;;;5028466;28;20503;-81
2022/09/15 10:48:30;;;;;;;3.63;1.10;;;22.30;99.90;;;;;;5026658;28;20037;-82
2022/09/15 10:51:16;;;;;;;4.97;1.27;;;22.10;99.90;;;;;;5026783;28;20375;-82
2022/09/15 10:54:02;;;;;;;2.55;1.15;;;22.10;99.90;;;;;;5027492;28;20167;-82
2022/09/15 10:56:42;;;;;;;3.65;1.20;;;22.10;99.90;;;;;;5026654;28;20045;-82
2022/09/15 10:59:19;;;;;;;3.60;1.20;;;21.90;99.90;;;;;;5026763;28;20370;-82
2022/09/15 11:01:59;;;;;;;3.35;1.20;;;21.90;99.90;;;;;;5027221;28;20022;-83
2022/09/15 11:04:37;;;;;;;2.53;1.13;;;22.10;99.90;;;;;;5026471;28;20033;-81
2022/09/15 11:07:43;;;;;;;3.78;1.40;;;22.10;99.90;;;;;;5029905;28;20052;-82
2022/09/15 11:10:29;;;;;;;3.20;1.10;;;22.20;99.90;;;;;;5030360;28;20029;-82
2022/09/15 11:13:16;;;;;;;2.08;1.08;;;22.00;99.90;;;;;;5029976;28;20367;-83
2022/09/15 11:16:23;;;;;;;4.18;1.30;;;22.00;99.90;;;;;;5030594;28;20033;-82
2022/09/15 11:19:03;;;;;;;4.15;1.35;;;22.00;99.90;;;;;;5029894;28;20521;-82
2022/09/15 11:21:36;;;;;;;2.17;1.20;;;21.90;99.90;;;;;;5030416;28;20095;-81
2022/09/15 11:24:30;;;;;;;3.45;1.08;;;22.00;99.90;;;;;;5030166;28;20461;-82
2022/09/15 11:27:11;;;;;;;2.53;1.40;;;21.90;99.90;;;;;;5029638;28;20077;-82
2022/09/15 11:29:58;;;;;;;2.40;1.42;;;21.90;99.90;;;;;;5030269;28;20033;-82
2022/09/15 11:32:45;;;;;;;6.00;1.50;;;21.90;99.90;;;;;;5030251;28;20048;-81
2022/09/15 11:35:34;;;;;;;2.35;1.23;;;21.90;99.90;;;;;;5030607;28;20026;-81
2022/09/15 11:38:13;;;;;;;1.55;1.00;;;21.90;99.90;;;;;;5029692;28;20036;-81
2022/09/15 11:40:47;;;;;;;4.70;1.10;;;22.10;99.90;;;;;;5029923;28;20060;-82
2022/09/15 11:43:27;;;;;;;2.20;1.50;;;22.00;99.90;;;;;;5029943;28;20052;-82
2022/09/15 11:45:56;;;;;;;2.65;1.05;;;22.00;99.90;;;;;;5030090;28;20061;-81
2022/09/15 11:48:53;;;;;;;1.90;1.08;;;22.00;99.90;;;;;;5029800;28;20532;-82
2022/09/15 11:51:22;;;;;;;2.10;1.10;;;21.90;99.90;;;;;;5029732;28;20025;-82
2022/09/15 11:54:00;;;;;;;1.83;1.00;;;21.90;99.90;;;;;;5029434;28;20057;-82
2022/09/15 11:56:43;;;;;;;2.38;1.35;;;21.90;99.90;;;;;;5029659;28;20049;-82
2022/09/15 11:59:16;;;;;;;6.13;1.65;;;22.00;99.90;;;;;;5029261;28;20029;-81
2022/09/15 12:02:15;;;;;;;3.03;1.05;;;22.20;99.90;;;;;;5029749;28;20169;-81
2022/09/15 12:05:12;;;;;;;2.42;1.45;;;22.20;99.90;;;;;;5029424;28;20036;-80
2022/09/15 12:08:04;;;;;;;2.58;1.10;;;22.10;99.90;;;;;;5029294;28;20029;-81
2022/09/15 12:10:35;;;;;;;2.58;1.10;;;22.10;99.90;;;;;;5029026;28;20125;-82
2022/09/15 12:13:01;;;;;;;1.58;1.02;;;22.20;99.90;;;;;;5029031;28;20490;-82
2022/09/15 12:15:27;;;;;;;4.72;1.48;;;22.10;99.90;;;;;;5028958;28;20541;-82
2022/09/15 12:18:10;;;;;;;3.22;1.30;;;22.00;99.90;;;;;;5028805;28;20040;-82
2022/09/15 12:20:46;;;;;;;3.58;1.30;;;21.80;99.90;;;;;;5028931;28;20086;-81
2022/09/15 12:23:28;;;;;;;2.08;1.17;;;21.60;99.90;;;;;;5029307;28;20383;-81
2022/09/15 12:26:05;;;;;;;3.30;1.30;;;21.50;99.90;;;;;;5029252;28;20041;-82
2022/09/15 12:28:38;;;;;;;4.65;1.20;;;21.40;99.90;;;;;;5028921;28;20037;-82
2022/09/15 12:31:22;;;;;;;3.13;1.00;;;21.10;99.90;;;;;;5028778;28;20513;-82
2022/09/15 12:34:18;;;;;;;2.53;1.20;;;20.80;99.90;;;;;;5028912;28;20105;-82
2022/09/15 12:36:46;;;;;;;1.65;1.02;;;20.60;99.90;;;;;;5028648;28;20351;-81
2022/09/15 12:39:22;;;;;;;2.25;1.48;;;20.40;99.90;;;;;;5029223;28;20191;-82
2022/09/15 12:41:55;;;;;;;2.53;1.10;;;20.30;99.90;;;;;;5028757;28;20491;-77
2022/09/15 12:44:32;;;;;;;1.60;1.00;;;20.10;99.90;;;;;;5028566;28;20520;-76
2022/09/15 12:47:00;;;;;;;1.75;1.27;;;20.30;99.90;;;;;;5028621;28;20033;-77
2022/09/15 12:49:35;;;;;;;3.17;1.20;;;20.40;99.90;;;;;;5029344;28;20040;-77
2022/09/15 12:52:04;;;;;;;2.72;1.10;;;20.80;99.90;;;;;;5028896;28;20040;-77
2022/09/15 12:54:32;;;;;;;1.70;1.05;;;21.20;99.90;;;;;;5028184;28;20116;-77
2022/09/15 12:56:59;;;;;;;2.45;1.08;;;21.60;99.90;;;;;;5027937;28;20052;-77
2022/09/15 12:59:26;;;;;;;1.80;1.10;;;21.70;99.90;;;;;;5028991;28;20100;-76
2022/09/15 13:01:54;;;;;;;3.88;1.33;;;21.80;99.90;;;;;;5027692;28;20030;-76
2022/09/15 13:04:49;;;;;;;1.73;1.08;;;22.00;99.90;;;;;;5028317;28;20030;-77
2022/09/15 13:07:15;;;;;;;1.45;1.00;;;22.00;99.90;;;;;;5028147;28;20486;-76
2022/09/15 13:09:58;;;;;;;1.40;1.00;;;22.20;99.90;;;;;;5027518;28;20669;-77
2022/09/15 13:12:35;;;;;;;1.08;0.88;;;22.70;99.90;;;;;;5027768;28;20029;-77
2022/09/15 13:15:04;;;;;;;1.58;1.00;;;23.20;99.90;;;;;;5027441;28;20059;-77